createdAt,value
2018-04-30T00:00:19.217Z,99.90
2018-04-30T00:04:52.394Z,99.90
2018-04-30T00:09:25.578Z,99.90
2018-04-30T00:13:58.790Z,99.90
2018-04-30T00:18:31.990Z,99.90
2018-04-30T00:23:05.141Z,99.90
2018-04-30T00:27:38.331Z,99.90
2018-04-30T00:32:11.515Z,99.90
2018-04-30T00:36:44.994Z,99.90
2018-04-30T00:41:18.948Z,99.90
2018-04-30T00:45:52.130Z,99.90
2018-04-30T00:50:25.318Z,99.90
2018-04-30T00:55:00.074Z,99.90
2018-04-30T00:59:33.271Z,99.90
2018-04-30T01:04:07.226Z,99.90
2018-04-30T01:08:40.433Z,99.90
2018-04-30T01:13:13.588Z,99.90
2018-04-30T01:17:46.777Z,99.90
2018-04-30T01:22:19.958Z,99.90
2018-04-30T01:26:53.154Z,99.90
2018-04-30T01:31:26.313Z,99.90
2018-04-30T01:35:59.495Z,99.90
2018-04-30T01:40:32.682Z,99.90
2018-04-30T01:45:05.857Z,99.90
2018-04-30T01:49:39.808Z,99.90
2018-04-30T01:54:12.989Z,99.90
2018-04-30T01:58:47.090Z,99.90
2018-04-30T02:03:20.273Z,99.90
2018-04-30T02:07:53.457Z,99.90
2018-04-30T02:12:26.642Z,99.90
2018-04-30T02:17:00.065Z,99.90
2018-04-30T02:21:33.283Z,99.90
2018-04-30T02:26:06.497Z,99.90
2018-04-30T02:30:39.678Z,99.90
2018-04-30T02:35:12.878Z,99.90
2018-04-30T02:39:46.042Z,99.90
2018-04-30T02:44:19.230Z,99.90
2018-04-30T02:48:52.416Z,99.90
2018-04-30T02:53:25.681Z,99.90
2018-04-30T02:57:58.861Z,99.90
2018-04-30T03:02:32.126Z,99.90
2018-04-30T03:07:05.295Z,99.90
2018-04-30T03:11:38.482Z,99.90
2018-04-30T03:16:11.671Z,99.90
2018-04-30T03:20:44.866Z,99.90
2018-04-30T03:25:18.025Z,99.90
2018-04-30T03:29:51.579Z,99.90
2018-04-30T03:34:24.771Z,99.90
2018-04-30T03:38:57.963Z,99.90
2018-04-30T03:43:32.202Z,99.90
2018-04-30T03:48:06.125Z,99.90
2018-04-30T03:52:40.073Z,99.90
2018-04-30T03:57:13.270Z,99.90
2018-04-30T04:01:58.258Z,99.90
2018-04-30T04:06:43.379Z,99.90
2018-04-30T04:11:16.592Z,99.90
2018-04-30T04:15:49.753Z,99.90
2018-04-30T04:20:22.949Z,99.90
2018-04-30T04:24:56.138Z,99.90
2018-04-30T04:29:30.093Z,99.90
2018-04-30T04:34:03.291Z,99.90
2018-04-30T04:38:36.453Z,99.90
2018-04-30T04:43:11.259Z,99.90
2018-04-30T04:47:45.573Z,99.90
2018-04-30T04:52:20.376Z,99.90
2018-04-30T04:56:53.700Z,99.90
2018-04-30T05:01:26.893Z,99.90
2018-04-30T05:06:00.084Z,99.90
2018-04-30T05:10:33.242Z,99.90
2018-04-30T05:15:06.427Z,99.90
2018-04-30T05:19:40.406Z,99.90
2018-04-30T05:24:13.877Z,99.90
2018-04-30T05:28:47.825Z,99.90
2018-04-30T05:33:21.008Z,99.90
2018-04-30T05:37:54.966Z,99.90
2018-04-30T05:42:28.169Z,99.90
2018-04-30T05:47:01.338Z,99.90
2018-04-30T05:51:35.290Z,99.90
2018-04-30T05:56:08.503Z,99.90
2018-04-30T06:00:41.699Z,99.90
2018-04-30T06:05:14.881Z,99.90
2018-04-30T06:09:48.837Z,99.90
2018-04-30T06:14:22.332Z,99.90
2018-04-30T06:18:55.558Z,99.90
2018-04-30T06:23:28.741Z,99.90
2018-04-30T06:28:01.959Z,99.90
2018-04-30T06:32:35.116Z,99.90
2018-04-30T06:37:08.303Z,99.90
2018-04-30T06:41:41.498Z,99.90
2018-04-30T06:46:14.658Z,99.90
2018-04-30T06:50:48.610Z,99.90
2018-04-30T06:55:22.003Z,99.90
2018-04-30T06:59:55.954Z,99.90
2018-04-30T07:04:29.137Z,99.90
2018-04-30T07:09:03.117Z,99.90
2018-04-30T07:13:36.274Z,99.90
2018-04-30T07:18:09.527Z,99.90
2018-04-30T07:22:42.985Z,99.90
2018-04-30T07:27:16.949Z,99.90
2018-04-30T07:31:50.973Z,99.90
2018-04-30T07:36:24.181Z,99.90
2018-04-30T07:40:57.393Z,99.90
2018-04-30T07:45:30.890Z,99.90
2018-04-30T07:50:04.101Z,99.90
2018-04-30T07:54:37.384Z,99.90
2018-04-30T07:59:10.500Z,98.80
2018-04-30T08:03:43.685Z,97.40
2018-04-30T08:08:17.638Z,97.70
2018-04-30T08:12:50.830Z,97.70
2018-04-30T08:17:24.018Z,97.60
2018-04-30T08:21:57.960Z,97.80
2018-04-30T08:26:31.243Z,97.80
2018-04-30T08:31:05.210Z,97.50
2018-04-30T08:35:38.381Z,97.50
2018-04-30T08:40:12.339Z,98.10
2018-04-30T08:44:45.536Z,98.00
2018-04-30T08:49:18.722Z,98.20
2018-04-30T08:53:52.694Z,95.80
2018-04-30T08:58:25.854Z,95.80
2018-04-30T09:02:59.851Z,94.90
2018-04-30T09:07:33.338Z,94.90
2018-04-30T09:12:06.524Z,96.60
2018-04-30T09:16:39.712Z,98.60
2018-04-30T09:21:13.001Z,97.30
2018-04-30T09:25:47.042Z,97.10
2018-04-30T09:30:20.995Z,97.50
2018-04-30T09:34:54.222Z,97.50
2018-04-30T09:39:27.421Z,97.10
2018-04-30T09:44:02.024Z,96.60
2018-04-30T09:48:36.741Z,95.00
2018-04-30T09:53:11.538Z,94.20
2018-04-30T09:57:44.773Z,93.20
2018-04-30T10:02:17.941Z,94.90
2018-04-30T10:06:51.155Z,95.50
2018-04-30T10:11:24.341Z,95.40
2018-04-30T10:15:57.522Z,95.10
2018-04-30T10:20:30.760Z,96.60
2018-04-30T10:25:03.942Z,95.30
2018-04-30T10:29:37.898Z,93.00
2018-04-30T10:34:11.170Z,93.00
2018-04-30T10:38:45.151Z,92.10
2018-04-30T10:43:18.423Z,92.10
2018-04-30T10:47:51.931Z,92.10
2018-04-30T10:52:25.125Z,90.90
2018-04-30T10:56:59.074Z,88.50
2018-04-30T11:01:32.259Z,88.50
2018-04-30T11:06:06.226Z,93.90
2018-04-30T11:10:39.394Z,93.90
2018-04-30T11:15:13.346Z,87.50
2018-04-30T11:19:46.601Z,87.50
2018-04-30T11:24:19.786Z,90.60
2018-04-30T11:28:52.996Z,90.80
2018-04-30T11:33:26.160Z,91.60
2018-04-30T11:37:59.536Z,92.00
2018-04-30T11:42:34.278Z,92.30
2018-04-30T11:47:08.316Z,92.60
2018-04-30T11:51:41.460Z,92.30
2018-04-30T11:56:14.664Z,90.80
2018-04-30T12:00:47.862Z,90.40
2018-04-30T12:05:21.061Z,88.50
2018-04-30T12:09:54.478Z,87.50
2018-04-30T12:14:29.222Z,90.10
2018-04-30T12:19:02.427Z,89.60
2018-04-30T12:23:35.642Z,90.30
2018-04-30T12:28:08.865Z,90.90
2018-04-30T12:32:42.142Z,91.10
2018-04-30T12:37:15.374Z,91.60
2018-04-30T12:41:48.596Z,90.90
2018-04-30T12:46:21.827Z,90.60
2018-04-30T12:50:55.886Z,86.60
2018-04-30T12:55:29.073Z,86.50
2018-04-30T13:00:03.049Z,83.80
2018-04-30T13:04:37.046Z,80.60
2018-04-30T13:09:10.243Z,80.70
2018-04-30T13:13:43.450Z,80.70
2018-04-30T13:18:16.614Z,83.60
2018-04-30T13:22:49.814Z,88.70
2018-04-30T13:27:23.070Z,83.10
2018-04-30T13:31:56.254Z,78.20
2018-04-30T13:36:29.443Z,75.90
2018-04-30T13:41:02.626Z,78.30
2018-04-30T13:45:35.894Z,77.30
2018-04-30T13:50:09.903Z,74.30
2018-04-30T13:54:44.659Z,75.60
2018-04-30T13:59:17.810Z,75.60
2018-04-30T14:03:53.202Z,76.00
2018-04-30T14:08:27.344Z,72.10
2018-04-30T14:13:04.495Z,71.10
2018-04-30T14:17:37.798Z,71.00
2018-04-30T14:22:11.275Z,70.80
2018-04-30T14:26:45.231Z,68.80
2018-04-30T14:31:20.150Z,68.70
2018-04-30T14:35:55.703Z,71.30
2018-04-30T14:40:28.951Z,71.20
2018-04-30T14:45:03.811Z,73.90
2018-04-30T14:49:39.207Z,79.60
2018-04-30T14:54:15.088Z,78.80
2018-04-30T14:58:49.959Z,86.20
2018-04-30T15:03:26.386Z,94.50
2018-04-30T15:07:59.752Z,94.50
2018-04-30T15:12:32.957Z,97.60
2018-04-30T15:17:06.231Z,99.90
2018-04-30T15:21:40.185Z,99.90
2018-04-30T15:26:13.380Z,99.90
2018-04-30T15:30:46.669Z,99.90
2018-04-30T15:35:20.618Z,99.90
2018-04-30T15:39:53.858Z,99.90
2018-04-30T15:44:27.042Z,99.90
2018-04-30T15:49:00.233Z,99.90
2018-04-30T15:53:34.183Z,99.90
2018-04-30T15:58:08.673Z,99.90
2018-04-30T16:02:41.896Z,99.90
2018-04-30T16:07:16.542Z,99.80
2018-04-30T16:11:50.138Z,99.80
2018-04-30T16:16:23.676Z,98.10
2018-04-30T16:20:56.858Z,96.30
2018-04-30T16:25:31.074Z,95.00
2018-04-30T16:30:08.440Z,94.10
2018-04-30T16:34:41.977Z,94.10
2018-04-30T16:39:15.137Z,93.70
2018-04-30T16:43:48.347Z,93.50
2018-04-30T16:48:21.636Z,92.60
2018-04-30T16:52:54.844Z,93.00
2018-04-30T16:57:28.803Z,93.30
2018-04-30T17:02:01.999Z,93.30
2018-04-30T17:06:35.173Z,92.70
2018-04-30T17:11:09.132Z,93.10
2018-04-30T17:15:42.326Z,93.00
2018-04-30T17:20:15.528Z,92.90
2018-04-30T17:24:48.725Z,92.80
2018-04-30T17:29:22.872Z,92.60
2018-04-30T17:33:56.058Z,92.50
2018-04-30T17:38:30.019Z,93.20
2018-04-30T17:43:03.219Z,93.20
2018-04-30T17:47:36.432Z,92.90
2018-04-30T17:52:09.707Z,92.70
2018-04-30T17:56:42.848Z,92.70
2018-04-30T18:01:16.030Z,92.20
2018-04-30T18:05:49.221Z,92.60
2018-04-30T18:10:23.278Z,93.30
2018-04-30T18:14:56.473Z,93.80
2018-04-30T18:19:30.430Z,94.00
2018-04-30T18:24:03.694Z,93.90
2018-04-30T18:28:37.650Z,94.20
2018-04-30T18:33:10.890Z,94.20
2018-04-30T18:37:44.115Z,94.40
2018-04-30T18:42:17.306Z,94.80
2018-04-30T18:46:50.510Z,94.80
2018-04-30T18:51:23.903Z,95.20
2018-04-30T18:55:57.354Z,95.70
2018-04-30T19:00:30.764Z,95.90
2018-04-30T19:05:03.996Z,96.50
2018-04-30T19:09:37.250Z,96.80
2018-04-30T19:14:10.409Z,97.30
2018-04-30T19:18:43.598Z,97.70
2018-04-30T19:23:17.563Z,97.70
2018-04-30T19:27:50.806Z,97.70
2018-04-30T19:32:24.013Z,98.10
2018-04-30T19:36:57.598Z,98.40
2018-04-30T19:41:30.847Z,98.60
2018-04-30T19:46:04.059Z,99.20
2018-04-30T19:50:37.369Z,99.50
2018-04-30T19:55:10.880Z,99.60
2018-04-30T19:59:44.091Z,99.80
2018-04-30T20:04:18.711Z,99.90
2018-04-30T20:08:57.938Z,99.70
2018-04-30T20:13:35.548Z,99.70
2018-04-30T20:18:09.609Z,99.70
2018-04-30T20:22:43.402Z,99.70
2018-04-30T20:27:16.774Z,99.90
2018-04-30T20:31:50.097Z,99.70
2018-04-30T20:36:23.732Z,99.40
2018-04-30T20:41:18.222Z,99.40
2018-04-30T20:45:53.641Z,99.20
2018-04-30T20:50:27.566Z,99.40
2018-04-30T20:55:08.223Z,99.30
2018-04-30T20:59:42.066Z,99.30
2018-04-30T21:04:16.581Z,99.30
2018-04-30T21:09:03.046Z,98.20
2018-04-30T21:13:36.286Z,98.10
2018-04-30T21:18:09.474Z,98.50
2018-04-30T21:22:42.751Z,97.90
2018-04-30T21:27:16.706Z,98.00
2018-04-30T21:31:49.888Z,97.60
2018-04-30T21:36:23.839Z,98.20
2018-04-30T21:40:57.043Z,98.20
2018-04-30T21:45:30.235Z,98.40
2018-04-30T21:50:03.490Z,98.70
2018-04-30T21:54:36.744Z,98.80
2018-04-30T21:59:10.048Z,99.00
2018-04-30T22:03:44.034Z,99.40
2018-04-30T22:08:17.265Z,99.40
2018-04-30T22:12:50.459Z,99.40
2018-04-30T22:17:23.714Z,99.60
2018-04-30T22:21:56.895Z,99.40
2018-04-30T22:26:30.846Z,99.40
2018-04-30T22:31:04.029Z,99.40
2018-04-30T22:35:37.977Z,98.90
2018-04-30T22:40:12.200Z,98.90
2018-04-30T22:44:45.391Z,98.60
2018-04-30T22:49:19.349Z,99.10
2018-04-30T22:53:52.512Z,99.10
2018-04-30T22:58:26.463Z,99.50
2018-04-30T23:02:59.646Z,99.40
2018-04-30T23:07:33.770Z,99.30
2018-04-30T23:12:07.739Z,99.40
2018-04-30T23:16:40.925Z,99.10
2018-04-30T23:21:14.116Z,99.20
2018-04-30T23:25:49.500Z,99.20
2018-04-30T23:30:22.705Z,99.30
2018-04-30T23:34:56.073Z,99.10
2018-04-30T23:39:29.264Z,99.20
2018-04-30T23:44:02.425Z,99.10
2018-04-30T23:48:36.566Z,99.40
2018-04-30T23:53:09.749Z,99.50
2018-04-30T23:57:42.929Z,99.50
